Helene — V2BK5 — position and weather

sailwx.info

Track history (hours):
 
Tides and Currents Weather Stations Pressure Air Temp Water Temp Dewpoint Dewpoint Depression Visibility Wind Speed Wind Dir Waves Ship Positions

Helene

Last reported at 2014-Jul-01 05:21 UTC. Time now 2014-Jul-28 08:26 UTC.
Position N 34°09' W 008°31'.
Warning: this ship's position is 27 days out of date.

Length 139 m; draft 8.1 m.

Type: Ship. MMSI: 304846000.

Date/timePositionNaut miles runAvg speedWind from/ knotsBaromVisibWave heightAir tempDewpointWater temp
2014-Jul-01 05:21N 34°09' W 008°31'7312.6
2014-Jun-30 23:33N 34°60' W 007°27'1212.3
2014-Jun-30 22:33N 35°09' W 007°16'1212.2
2014-Jun-30 21:33N 35°17' W 007°06'2412.1
2014-Jun-30 19:33N 35°34' W 006°44'1212.1
2014-Jun-30 18:33N 35°43' W 006°34'1211.7
2014-Jun-30 17:30N 35°51' W 006°23'286 7.6
2014-Jun-29 04:06N 37°25' W 000°46'711.6
2014-Jun-29 03:29N 37°30' W 000°39'1111.7
2014-Jun-29 02:34N 37°38' W 000°30'1212.1
2014-Jun-29 01:33N 37°48' W 000°22'1211.7
2014-Jun-29 00:33N 37°58' W 000°14'1111.4
2014-Jun-28 23:33N 38°08' W 000°06'111 4.9
2014-Jun-28 01:06N 39°56' E 000°20'1011.6
2014-Jun-28 00:13N 40°03' E 000°30'64 9.5
2014-Jun-27 17:29N 40°59' E 001°11'4 0.3
2014-Jun-27 03:32N 41°01' E 001°14'1612.3
2014-Jun-27 02:15N 40°48' E 001°26'1110.3
2014-Jun-27 01:10N 40°37' E 001°29'710.7
2014-Jun-27 00:32N 40°31' E 001°26'1611.5
2014-Jun-26 23:09N 40°16' E 001°18'911.7
2014-Jun-26 22:24N 40°08' E 001°14'2411.7
2014-Jun-26 20:23N 39°46' E 001°02'3411.9
2014-Jun-26 17:29N 39°14' E 000°45'7512.5
2014-Jun-26 11:30N 38°08' W 000°00'1212.2
2014-Jun-26 10:33N 37°59' W 000°09'1212.0
2014-Jun-26 09:33N 37°49' W 000°17'1211.9
2014-Jun-26 08:33N 37°39' W 000°26'25412.1
2014-Jun-25 11:33N 35°59' W 005°18'  
2014-Jun-22 00:33N 49°19' W 005°04'11510.4
2014-Jun-21 13:29N 50°05' W 002°21'1112.1
2014-Jun-21 12:34N 50°08' W 002°04'1313.2
2014-Jun-21 11:33N 50°12' W 001°45'1514.5
2014-Jun-21 10:33N 50°16' W 001°22'1615.7
2014-Jun-21 09:33N 50°21' W 000°59'1615.9
2014-Jun-21 08:33N 50°25' W 000°35'1515.3
2014-Jun-21 07:33N 50°30' W 000°12'1514.6
2014-Jun-21 06:33N 50°33' E 000°10'1313.5
2014-Jun-21 05:33N 50°38' E 000°30'  
Track history (hours):
 
Tides and Currents Weather Stations Pressure Air Temp Water Temp Dewpoint Dewpoint Depression Visibility Wind Speed Wind Dir Waves Ship Positions

Helene

Last reported at 2014-Jul-01 05:21 UTC. Time now 2014-Jul-28 08:26 UTC.
Position N 34°09' W 008°31'.
Warning: this ship's position is 27 days out of date.

Length 139 m; draft 8.1 m.

Type: Ship. MMSI: 304846000.

Date/timePositionNaut miles runAvg speedWind from/ knotsBaromVisibWave heightAir tempDewpointWater temp
2014-Jul-01 05:21N 34°09' W 008°31'7312.6
2014-Jun-30 23:33N 34°60' W 007°27'1212.3
2014-Jun-30 22:33N 35°09' W 007°16'1212.2
2014-Jun-30 21:33N 35°17' W 007°06'2412.1
2014-Jun-30 19:33N 35°34' W 006°44'1212.1
2014-Jun-30 18:33N 35°43' W 006°34'1211.7
2014-Jun-30 17:30N 35°51' W 006°23'286 7.6
2014-Jun-29 04:06N 37°25' W 000°46'711.6
2014-Jun-29 03:29N 37°30' W 000°39'1111.7
2014-Jun-29 02:34N 37°38' W 000°30'1212.1
2014-Jun-29 01:33N 37°48' W 000°22'1211.7
2014-Jun-29 00:33N 37°58' W 000°14'1111.4
2014-Jun-28 23:33N 38°08' W 000°06'111 4.9
2014-Jun-28 01:06N 39°56' E 000°20'1011.6
2014-Jun-28 00:13N 40°03' E 000°30'64 9.5
2014-Jun-27 17:29N 40°59' E 001°11'4 0.3
2014-Jun-27 03:32N 41°01' E 001°14'1612.3
2014-Jun-27 02:15N 40°48' E 001°26'1110.3
2014-Jun-27 01:10N 40°37' E 001°29'710.7
2014-Jun-27 00:32N 40°31' E 001°26'1611.5
2014-Jun-26 23:09N 40°16' E 001°18'911.7
2014-Jun-26 22:24N 40°08' E 001°14'2411.7
2014-Jun-26 20:23N 39°46' E 001°02'3411.9
2014-Jun-26 17:29N 39°14' E 000°45'7512.5
2014-Jun-26 11:30N 38°08' W 000°00'1212.2
2014-Jun-26 10:33N 37°59' W 000°09'1212.0
2014-Jun-26 09:33N 37°49' W 000°17'1211.9
2014-Jun-26 08:33N 37°39' W 000°26'25412.1
2014-Jun-25 11:33N 35°59' W 005°18'  
2014-Jun-22 00:33N 49°19' W 005°04'11510.4
2014-Jun-21 13:29N 50°05' W 002°21'1112.1
2014-Jun-21 12:34N 50°08' W 002°04'1313.2
2014-Jun-21 11:33N 50°12' W 001°45'1514.5
2014-Jun-21 10:33N 50°16' W 001°22'1615.7
2014-Jun-21 09:33N 50°21' W 000°59'1615.9
2014-Jun-21 08:33N 50°25' W 000°35'1515.3
2014-Jun-21 07:33N 50°30' W 000°12'1514.6
2014-Jun-21 06:33N 50°33' E 000°10'1313.5
2014-Jun-21 05:33N 50°38' E 000°30'  

Dump ship's entire track history